createdAt,value
2019-04-30T00:05:09.948Z,22.43
2019-04-30T00:07:41.505Z,22.13
2019-04-30T00:10:55.430Z,20.37
2019-04-30T00:13:27.709Z,21.60
2019-04-30T00:18:58.157Z,24.13
2019-04-30T00:21:29.102Z,22.93
2019-04-30T00:24:00.816Z,25.20
2019-04-30T00:26:39.868Z,23.43
2019-04-30T00:29:19.096Z,24.00
2019-04-30T00:31:57.681Z,23.70
2019-04-30T00:34:30.802Z,25.13
2019-04-30T00:37:14.045Z,23.50
2019-04-30T00:39:50.687Z,24.30
2019-04-30T00:42:23.889Z,24.23
2019-04-30T00:44:51.548Z,23.50
2019-04-30T00:47:22.801Z,24.60
2019-04-30T00:50:00.189Z,24.20
2019-04-30T00:52:35.196Z,23.53
2019-04-30T00:55:12.134Z,23.63
2019-04-30T00:57:44.518Z,24.07
2019-04-30T01:00:25.944Z,24.97
2019-04-30T01:03:08.366Z,22.80
2019-04-30T01:05:39.706Z,23.63
2019-04-30T01:08:15.388Z,22.47
2019-04-30T01:10:55.634Z,22.93
2019-04-30T01:13:23.833Z,22.20
2019-04-30T01:15:58.663Z,22.63
2019-04-30T01:18:32.130Z,23.57
2019-04-30T01:21:06.917Z,22.33
2019-04-30T01:23:42.545Z,22.00
2019-04-30T01:26:18.849Z,22.73
2019-04-30T01:28:58.507Z,21.67
2019-04-30T01:31:37.554Z,21.40
2019-04-30T01:34:10.388Z,22.77
2019-04-30T01:36:43.504Z,24.10
2019-04-30T01:39:12.705Z,20.37
2019-04-30T01:41:43.842Z,23.00
2019-04-30T01:44:19.381Z,23.37
2019-04-30T01:46:52.122Z,22.60
2019-04-30T01:49:25.729Z,22.23
2019-04-30T01:51:59.304Z,22.60
2019-04-30T01:54:30.368Z,23.93
2019-04-30T01:57:03.852Z,22.77
2019-04-30T01:59:54.143Z,23.23
2019-04-30T02:02:28.625Z,23.17
2019-04-30T02:05:03.058Z,23.43
2019-04-30T02:07:38.844Z,24.40
2019-04-30T02:10:14.531Z,26.37
2019-04-30T02:12:50.710Z,24.37
2019-04-30T02:15:29.677Z,25.17
2019-04-30T02:18:02.458Z,26.03
2019-04-30T02:20:38.354Z,24.87
2019-04-30T02:23:16.626Z,25.23
2019-04-30T02:25:49.038Z,26.60
2019-04-30T02:28:24.493Z,25.23
2019-04-30T02:31:00.423Z,26.37
2019-04-30T02:33:31.500Z,26.50
2019-04-30T02:36:19.986Z,25.60
2019-04-30T02:39:02.284Z,25.43
2019-04-30T02:41:41.115Z,25.07
2019-04-30T02:44:13.360Z,26.37
2019-04-30T02:46:46.079Z,25.03
2019-04-30T02:49:20.734Z,26.03
2019-04-30T02:51:53.269Z,25.63
2019-04-30T02:54:31.322Z,26.30
2019-04-30T02:57:02.865Z,25.30
2019-04-30T02:59:40.129Z,25.80
2019-04-30T03:02:11.747Z,26.80
2019-04-30T03:04:46.137Z,25.57
2019-04-30T03:07:19.276Z,23.17
2019-04-30T03:09:49.989Z,23.73
2019-04-30T03:12:20.597Z,23.87
2019-04-30T03:14:52.961Z,23.90
2019-04-30T03:17:46.417Z,24.00
2019-04-30T03:20:31.131Z,22.00
2019-04-30T03:23:02.176Z,22.90
2019-04-30T03:25:29.885Z,22.17
2019-04-30T03:28:04.432Z,22.40
2019-04-30T03:30:33.828Z,21.33
2019-04-30T03:33:03.219Z,23.10
2019-04-30T03:35:41.632Z,22.27
2019-04-30T03:38:10.453Z,22.53
2019-04-30T03:40:40.975Z,21.20
2019-04-30T03:43:14.090Z,22.33
2019-04-30T03:45:46.617Z,21.50
2019-04-30T03:48:21.191Z,22.30
2019-04-30T03:50:56.738Z,22.57
2019-04-30T03:53:24.546Z,21.40
2019-04-30T03:56:01.299Z,22.50
2019-04-30T03:58:39.516Z,22.20
2019-04-30T04:01:14.673Z,22.83
2019-04-30T04:04:10.035Z,22.40
2019-04-30T04:06:49.331Z,21.47
2019-04-30T04:09:30.220Z,24.00
2019-04-30T04:12:20.382Z,23.13
2019-04-30T04:14:51.330Z,24.43
2019-04-30T04:17:23.962Z,23.57
2019-04-30T04:19:56.234Z,23.30
2019-04-30T04:22:30.313Z,23.90
2019-04-30T04:25:01.221Z,23.43
2019-04-30T04:27:34.056Z,23.60
2019-04-30T04:30:11.203Z,23.93
2019-04-30T04:32:41.946Z,23.13
2019-04-30T04:35:13.118Z,23.10
2019-04-30T04:37:45.336Z,22.83
2019-04-30T04:40:14.703Z,22.90
2019-04-30T04:42:49.290Z,23.83
2019-04-30T04:45:21.713Z,23.50
2019-04-30T04:47:52.209Z,21.90
2019-04-30T04:50:26.359Z,22.00
2019-04-30T04:53:01.729Z,22.17
2019-04-30T04:55:34.228Z,23.70
2019-04-30T04:58:05.233Z,24.03
2019-04-30T05:00:40.973Z,26.53
2019-04-30T05:03:16.823Z,26.67
2019-04-30T05:05:52.809Z,24.37
2019-04-30T05:08:30.159Z,26.87
2019-04-30T05:11:02.428Z,26.53
2019-04-30T05:13:35.235Z,26.33
2019-04-30T05:16:05.120Z,31.85
2019-04-30T05:18:42.062Z,27.40
2019-04-30T05:21:18.852Z,28.20
2019-04-30T05:23:53.292Z,28.83
2019-04-30T05:26:34.035Z,33.20
2019-04-30T05:29:09.564Z,36.48
2019-04-30T05:31:44.397Z,30.97
2019-04-30T05:34:23.839Z,29.07
2019-04-30T05:36:55.789Z,28.60
2019-04-30T05:39:32.625Z,29.60
2019-04-30T05:42:08.782Z,30.40
2019-04-30T05:44:43.867Z,29.93
2019-04-30T05:47:19.376Z,26.10
2019-04-30T05:49:50.977Z,28.53
2019-04-30T05:52:21.420Z,29.40
2019-04-30T05:54:52.627Z,29.77
2019-04-30T05:57:24.893Z,30.67
2019-04-30T05:59:58.470Z,30.70
2019-04-30T06:02:33.595Z,29.57
2019-04-30T06:05:00.752Z,31.03
2019-04-30T06:07:39.661Z,30.10
2019-04-30T06:10:16.523Z,29.47
2019-04-30T06:13:00.672Z,30.33
2019-04-30T06:15:35.466Z,36.93
2019-04-30T06:18:13.454Z,31.67
2019-04-30T06:20:39.310Z,32.77
2019-04-30T06:23:09.720Z,29.10
2019-04-30T06:25:55.642Z,37.90
2019-04-30T06:28:12.505Z,32.50
2019-04-30T06:30:49.691Z,28.20
2019-04-30T06:33:29.172Z,30.30
2019-04-30T06:36:03.027Z,30.73
2019-04-30T06:38:33.586Z,28.43
2019-04-30T06:41:11.595Z,29.90
2019-04-30T06:43:46.446Z,30.37
2019-04-30T06:46:22.508Z,30.73
2019-04-30T06:48:53.141Z,28.23
2019-04-30T06:51:30.606Z,30.33
2019-04-30T06:54:03.773Z,30.97
2019-04-30T06:56:39.927Z,29.27
2019-04-30T06:59:11.234Z,27.63
2019-04-30T07:02:19.711Z,30.03
2019-04-30T07:04:42.561Z,34.98
2019-04-30T07:07:36.366Z,30.50
2019-04-30T07:10:17.954Z,28.03
2019-04-30T07:15:56.319Z,23.17
2019-04-30T07:18:32.772Z,25.93
2019-04-30T07:21:15.472Z,25.17
2019-04-30T07:24:02.535Z,25.07
2019-04-30T07:26:33.769Z,22.47
2019-04-30T07:29:06.700Z,26.60
2019-04-30T07:31:40.410Z,25.00
2019-04-30T07:34:10.536Z,26.93
2019-04-30T07:36:48.418Z,29.12
2019-04-30T07:39:13.835Z,23.67
2019-04-30T07:41:44.662Z,25.13
2019-04-30T07:44:31.054Z,21.47
2019-04-30T07:46:50.947Z,21.83
2019-04-30T07:49:46.989Z,21.50
2019-04-30T07:52:07.116Z,23.60
2019-04-30T07:54:39.577Z,20.93
2019-04-30T07:57:13.115Z,20.40
2019-04-30T07:59:55.386Z,22.95
2019-04-30T08:02:36.039Z,20.83
2019-04-30T08:05:15.197Z,21.90
2019-04-30T08:07:48.816Z,22.52
2019-04-30T08:10:21.987Z,22.82
2019-04-30T08:12:52.223Z,21.87
2019-04-30T08:15:23.056Z,21.30
2019-04-30T08:18:03.588Z,19.37
2019-04-30T08:20:33.374Z,18.80
2019-04-30T08:23:15.624Z,19.53
2019-04-30T08:25:39.470Z,18.73
2019-04-30T08:28:14.669Z,23.20
2019-04-30T08:30:48.888Z,24.25
2019-04-30T08:33:20.083Z,19.50
2019-04-30T08:35:50.164Z,22.27
2019-04-30T08:38:23.769Z,19.57
2019-04-30T08:40:58.122Z,19.73
2019-04-30T08:43:31.130Z,20.37
2019-04-30T08:46:03.096Z,19.00
2019-04-30T08:48:46.126Z,18.90
2019-04-30T08:51:13.684Z,21.97
2019-04-30T08:53:44.273Z,19.37
2019-04-30T08:56:16.695Z,20.87
2019-04-30T08:58:48.941Z,20.47
2019-04-30T09:01:19.845Z,20.27
2019-04-30T09:03:51.194Z,20.60
2019-04-30T09:06:29.496Z,20.40
2019-04-30T09:09:10.780Z,20.53
2019-04-30T09:11:51.817Z,19.67
2019-04-30T09:14:15.267Z,22.67
2019-04-30T09:16:51.386Z,23.13
2019-04-30T09:19:21.591Z,23.27
2019-04-30T09:21:58.930Z,23.83
2019-04-30T09:24:31.136Z,23.10
2019-04-30T09:27:00.758Z,22.63
2019-04-30T09:29:30.840Z,21.10
2019-04-30T09:32:04.512Z,21.23
2019-04-30T09:34:40.455Z,23.47
2019-04-30T09:37:13.080Z,24.20
2019-04-30T09:39:46.567Z,23.73
2019-04-30T09:42:20.041Z,24.47
2019-04-30T09:44:54.239Z,24.27
2019-04-30T09:47:25.972Z,25.77
2019-04-30T09:49:59.600Z,28.42
2019-04-30T09:52:30.854Z,25.67
2019-04-30T09:55:03.075Z,25.33
2019-04-30T09:57:43.797Z,23.90
2019-04-30T10:00:19.432Z,22.17
2019-04-30T10:02:53.362Z,20.10
2019-04-30T10:05:31.541Z,22.77
2019-04-30T10:08:13.268Z,23.33
2019-04-30T10:10:50.547Z,24.20
2019-04-30T10:13:27.353Z,22.43
2019-04-30T10:16:05.599Z,23.93
2019-04-30T10:18:37.819Z,21.30
2019-04-30T10:21:11.188Z,20.37
2019-04-30T10:23:42.103Z,20.80
2019-04-30T10:26:13.431Z,20.63
2019-04-30T10:28:44.424Z,22.90
2019-04-30T10:31:18.745Z,24.17
2019-04-30T10:34:01.927Z,23.90
2019-04-30T10:36:34.827Z,23.17
2019-04-30T10:39:05.249Z,22.90
2019-04-30T10:41:35.445Z,25.85
2019-04-30T10:44:08.748Z,20.43
2019-04-30T10:46:41.322Z,19.17
2019-04-30T10:49:16.107Z,21.53
2019-04-30T10:51:53.960Z,20.50
2019-04-30T10:54:26.282Z,21.33
2019-04-30T10:57:05.071Z,22.77
2019-04-30T10:59:41.782Z,20.93
2019-04-30T11:02:20.297Z,19.63
2019-04-30T11:04:50.698Z,18.77
2019-04-30T11:07:24.516Z,17.37
2019-04-30T11:09:58.679Z,20.90
2019-04-30T11:12:29.945Z,19.07
2019-04-30T11:15:06.264Z,20.90
2019-04-30T11:17:39.066Z,21.47
2019-04-30T11:20:12.880Z,20.57
2019-04-30T11:22:43.630Z,20.67
2019-04-30T11:25:14.546Z,19.17
2019-04-30T11:27:47.120Z,18.70
2019-04-30T11:30:22.391Z,19.20
2019-04-30T11:32:48.263Z,20.93
2019-04-30T11:35:20.748Z,20.87
2019-04-30T11:37:51.278Z,20.03
2019-04-30T11:40:34.433Z,19.13
2019-04-30T11:43:05.040Z,19.83
2019-04-30T11:45:52.372Z,18.70
2019-04-30T11:48:22.785Z,19.73
2019-04-30T11:50:54.056Z,18.63
2019-04-30T11:53:27.851Z,17.47
2019-04-30T11:55:54.928Z,18.03
2019-04-30T11:58:33.270Z,19.30
2019-04-30T12:01:07.133Z,17.77
2019-04-30T12:03:35.985Z,19.73
2019-04-30T12:06:09.293Z,18.73
2019-04-30T12:08:55.890Z,19.80
2019-04-30T12:11:26.797Z,19.77
2019-04-30T12:13:56.680Z,18.37
2019-04-30T12:16:26.229Z,19.17
2019-04-30T12:19:00.441Z,19.20
2019-04-30T12:21:29.334Z,19.03
2019-04-30T12:24:00.609Z,16.60
2019-04-30T12:26:32.706Z,17.77
2019-04-30T12:29:04.394Z,17.37
2019-04-30T12:31:33.853Z,17.93
2019-04-30T12:34:05.223Z,15.10
2019-04-30T12:36:36.560Z,17.10
2019-04-30T12:39:09.813Z,16.50
2019-04-30T12:41:46.104Z,17.10
2019-04-30T12:44:16.901Z,20.10
2019-04-30T12:47:32.618Z,16.97
2019-04-30T12:49:52.179Z,15.33
2019-04-30T12:55:34.533Z,15.07
2019-04-30T12:58:06.697Z,16.03
2019-04-30T13:00:56.554Z,18.00
2019-04-30T13:03:34.101Z,17.43
2019-04-30T13:06:04.903Z,17.37
2019-04-30T13:08:37.324Z,15.87
2019-04-30T13:11:06.917Z,14.50
2019-04-30T13:13:37.021Z,16.33
2019-04-30T13:16:15.107Z,15.63
2019-04-30T13:18:46.723Z,14.43
2019-04-30T13:21:18.370Z,14.97
2019-04-30T13:23:52.140Z,16.17
2019-04-30T13:28:15.633Z,15.57
2019-04-30T13:30:50.031Z,14.63
2019-04-30T13:33:39.226Z,14.93
2019-04-30T13:36:11.183Z,14.27
2019-04-30T13:38:49.663Z,15.83
2019-04-30T13:41:22.398Z,16.33
2019-04-30T13:43:55.901Z,16.33
2019-04-30T13:46:28.469Z,17.90
2019-04-30T13:49:07.024Z,14.13
2019-04-30T13:51:39.041Z,13.97
2019-04-30T13:54:12.692Z,15.23
2019-04-30T13:56:44.266Z,15.60
2019-04-30T13:59:14.546Z,15.67
2019-04-30T14:01:44.473Z,17.93
2019-04-30T14:04:38.562Z,18.82
2019-04-30T14:07:08.750Z,16.90
2019-04-30T14:09:37.863Z,16.47
2019-04-30T14:12:08.106Z,14.90
2019-04-30T14:14:41.610Z,15.37
2019-04-30T14:17:11.207Z,14.47
2019-04-30T14:19:41.822Z,13.77
2019-04-30T14:22:11.803Z,16.30
2019-04-30T14:24:41.282Z,16.10
2019-04-30T14:27:20.263Z,17.07
2019-04-30T14:30:04.465Z,15.80
2019-04-30T14:32:39.624Z,15.73
2019-04-30T14:35:12.279Z,15.67
2019-04-30T14:38:00.158Z,16.23
2019-04-30T14:40:29.840Z,15.90
2019-04-30T14:43:09.631Z,16.27
2019-04-30T14:46:01.136Z,16.77
2019-04-30T14:48:53.665Z,17.20
2019-04-30T14:51:27.479Z,15.53
2019-04-30T14:54:09.455Z,15.93
2019-04-30T14:56:55.027Z,16.70
2019-04-30T14:59:42.537Z,16.63
2019-04-30T15:02:35.726Z,17.03
2019-04-30T15:05:13.992Z,15.47
2019-04-30T15:07:47.523Z,15.23
2019-04-30T15:10:24.345Z,15.37
2019-04-30T15:12:54.695Z,16.10
2019-04-30T15:15:26.929Z,16.80
2019-04-30T15:17:59.279Z,16.77
2019-04-30T15:20:39.833Z,16.50
2019-04-30T15:23:18.855Z,16.50
2019-04-30T15:28:43.740Z,16.57
2019-04-30T15:31:16.174Z,16.20
2019-04-30T15:34:01.766Z,16.93
2019-04-30T15:36:26.014Z,17.33
2019-04-30T15:39:02.756Z,16.97
2019-04-30T15:41:40.188Z,18.27
2019-04-30T15:44:13.263Z,17.40
2019-04-30T15:46:53.650Z,17.23
2019-04-30T15:49:24.971Z,17.37
2019-04-30T15:52:01.270Z,18.07
2019-04-30T15:54:32.419Z,19.07
2019-04-30T15:57:02.812Z,18.43
2019-04-30T15:59:33.293Z,20.33
2019-04-30T16:02:12.789Z,20.83
2019-04-30T16:04:41.093Z,18.47
2019-04-30T16:07:16.906Z,18.77
2019-04-30T16:10:05.221Z,17.83
2019-04-30T16:12:40.028Z,17.33
2019-04-30T16:15:10.309Z,17.40
2019-04-30T16:17:42.292Z,17.23
2019-04-30T16:20:13.896Z,18.77
2019-04-30T16:22:45.585Z,17.67
2019-04-30T16:25:27.657Z,19.20
2019-04-30T16:28:03.269Z,19.33
2019-04-30T16:30:36.186Z,19.30
2019-04-30T16:33:10.422Z,19.97
2019-04-30T16:35:43.004Z,20.40
2019-04-30T16:38:15.452Z,20.03
2019-04-30T16:40:52.594Z,20.77
2019-04-30T16:43:38.772Z,18.97
2019-04-30T16:46:14.919Z,18.73
2019-04-30T16:48:48.823Z,19.23
2019-04-30T16:51:24.430Z,20.63
2019-04-30T16:53:55.225Z,19.17
2019-04-30T16:56:28.689Z,19.07
2019-04-30T16:59:03.843Z,20.43
2019-04-30T17:01:38.568Z,19.37
2019-04-30T17:04:16.881Z,19.37
2019-04-30T17:07:11.992Z,19.63
2019-04-30T17:10:09.060Z,19.07
2019-04-30T17:12:55.970Z,19.87
2019-04-30T17:15:30.465Z,19.37
2019-04-30T17:18:00.517Z,18.93
2019-04-30T17:20:38.944Z,18.50
2019-04-30T17:23:19.347Z,18.70
2019-04-30T17:25:52.662Z,19.57
2019-04-30T17:28:28.946Z,20.03
2019-04-30T17:31:06.111Z,21.30
2019-04-30T17:33:39.277Z,19.77
2019-04-30T17:36:13.942Z,18.57
2019-04-30T17:38:47.435Z,19.10
2019-04-30T17:41:18.586Z,18.27
2019-04-30T17:43:51.128Z,20.33
2019-04-30T17:46:25.785Z,19.10
2019-04-30T17:48:59.285Z,18.87
2019-04-30T17:51:36.956Z,20.20
2019-04-30T17:54:17.662Z,20.27
2019-04-30T17:56:49.388Z,19.43
2019-04-30T17:59:20.305Z,19.73
2019-04-30T18:01:59.629Z,19.70
2019-04-30T18:04:36.554Z,19.63
2019-04-30T18:07:10.125Z,18.80
2019-04-30T18:12:52.122Z,18.37
2019-04-30T18:15:36.194Z,18.73
2019-04-30T18:18:18.044Z,18.73
2019-04-30T18:21:27.372Z,19.10
2019-04-30T18:24:19.517Z,18.20
2019-04-30T18:26:53.451Z,19.07
2019-04-30T18:29:31.277Z,18.00
2019-04-30T18:32:09.346Z,19.63
2019-04-30T18:34:59.009Z,18.97
2019-04-30T18:37:40.759Z,19.90
2019-04-30T18:40:20.971Z,19.23
2019-04-30T18:42:59.485Z,20.33
2019-04-30T18:45:36.547Z,19.07
2019-04-30T18:48:11.429Z,19.13
2019-04-30T18:50:52.249Z,18.97
2019-04-30T18:53:36.807Z,19.30
2019-04-30T18:56:14.676Z,19.30
2019-04-30T18:58:50.601Z,19.17
2019-04-30T19:01:30.954Z,18.70
2019-04-30T19:04:09.144Z,18.47
2019-04-30T19:06:39.425Z,19.90
2019-04-30T19:09:40.087Z,18.87
2019-04-30T19:12:20.927Z,19.33
2019-04-30T19:14:55.451Z,18.67
2019-04-30T19:20:41.386Z,19.93
2019-04-30T19:23:19.050Z,20.43
2019-04-30T19:26:45.188Z,20.87
2019-04-30T19:29:23.117Z,20.07
2019-04-30T19:31:59.415Z,21.30
2019-04-30T19:34:39.411Z,20.23
2019-04-30T19:37:40.034Z,20.07
2019-04-30T19:43:02.652Z,20.80
2019-04-30T19:45:40.218Z,22.07
2019-04-30T19:48:16.029Z,22.50
2019-04-30T19:50:53.424Z,20.40
2019-04-30T19:56:44.637Z,22.87
2019-04-30T19:59:14.145Z,23.97
2019-04-30T20:01:51.765Z,21.40
2019-04-30T20:07:22.919Z,22.87
2019-04-30T20:10:03.210Z,22.37
2019-04-30T20:12:33.548Z,22.93
2019-04-30T20:15:19.391Z,23.80
2019-04-30T20:18:05.410Z,23.60
2019-04-30T20:20:34.594Z,22.93
2019-04-30T20:23:11.794Z,25.03
2019-04-30T20:26:26.855Z,24.40
2019-04-30T20:29:10.020Z,24.67
2019-04-30T20:31:48.705Z,23.77
2019-04-30T20:34:25.745Z,24.80
2019-04-30T20:37:04.469Z,24.67
2019-04-30T20:39:51.680Z,24.93
2019-04-30T20:42:23.651Z,24.43
2019-04-30T20:44:58.901Z,24.33
2019-04-30T20:47:31.432Z,24.37
2019-04-30T20:50:02.550Z,25.00
2019-04-30T20:52:34.649Z,23.63
2019-04-30T20:55:35.029Z,24.90
2019-04-30T20:58:09.563Z,21.77
2019-04-30T21:01:00.517Z,22.63
2019-04-30T21:03:25.071Z,25.07
2019-04-30T21:06:00.671Z,22.80
2019-04-30T21:08:36.429Z,23.00
2019-04-30T21:11:11.099Z,24.20
2019-04-30T21:13:49.122Z,23.47
2019-04-30T21:16:21.936Z,23.10
2019-04-30T21:18:55.295Z,23.23
2019-04-30T21:21:28.771Z,22.23
2019-04-30T21:23:59.961Z,22.87
2019-04-30T21:26:33.538Z,23.57
2019-04-30T21:29:13.290Z,22.97
2019-04-30T21:31:43.795Z,22.77
2019-04-30T21:34:32.033Z,21.17
2019-04-30T21:39:58.520Z,22.50
2019-04-30T21:42:35.674Z,24.03
2019-04-30T21:45:08.038Z,22.83
2019-04-30T21:47:56.012Z,23.10
2019-04-30T21:50:21.515Z,23.60
2019-04-30T21:53:06.666Z,23.10
2019-04-30T21:59:24.480Z,22.37
2019-04-30T22:02:02.834Z,24.37
2019-04-30T22:04:34.472Z,21.30
2019-04-30T22:07:05.939Z,21.47
2019-04-30T22:09:40.515Z,22.47
2019-04-30T22:12:10.304Z,22.73
2019-04-30T22:14:43.298Z,22.53
2019-04-30T22:17:16.361Z,24.33
2019-04-30T22:19:49.101Z,23.10
2019-04-30T22:22:21.813Z,22.23
2019-04-30T22:25:01.574Z,23.07
2019-04-30T22:27:34.845Z,22.10
2019-04-30T22:30:03.370Z,22.07
2019-04-30T22:32:36.720Z,21.83
2019-04-30T22:35:14.634Z,22.60
2019-04-30T22:37:48.738Z,21.80
2019-04-30T22:40:21.736Z,22.13
2019-04-30T23:00:09.709Z,26.43
2019-04-30T23:02:44.352Z,26.40
2019-04-30T23:05:26.471Z,25.63
2019-04-30T23:07:58.677Z,24.73
2019-04-30T23:17:31.183Z,25.67
2019-04-30T23:20:06.463Z,25.20
2019-04-30T23:22:47.105Z,24.77
2019-04-30T23:25:22.034Z,25.37
2019-04-30T23:27:56.352Z,26.10
2019-04-30T23:30:44.056Z,24.50
2019-04-30T23:36:11.287Z,23.93
2019-04-30T23:38:36.452Z,26.27
2019-04-30T23:41:30.178Z,24.77
2019-04-30T23:43:49.763Z,24.83
2019-04-30T23:46:28.282Z,22.40
2019-04-30T23:49:01.962Z,24.20
2019-04-30T23:51:32.982Z,24.07
2019-04-30T23:54:06.292Z,24.00
